Time,TemperatureF,DewpointF,PressureIn,WindDirection,WindDirectionDegrees,WindSpeedMPH,WindSpeedGustMPH,Humidity,HourlyPrecipIn,Conditions,Clouds,dailyrainin,SolarRadiationWatts/m^2,SoftwareType,DateUTC
2013-09-04 00:02:00,50.0,49.0,-100.00,ENE,66,0.0,3.0,95,0.00,,,0.09,0.000000,,2013-09-04 08:02:00,
2013-09-04 00:12:00,50.0,49.0,-100.00,ENE,66,0.0,3.0,95,0.00,,,0.09,0.000000,,2013-09-04 08:12:00,
2013-09-04 00:22:00,50.0,49.0,-100.00,ENE,66,0.0,3.0,95,0.00,,,0.09,0.000000,,2013-09-04 08:22:00,
2013-09-04 00:52:00,48.0,47.0,-100.00,NE,38,1.0,3.0,96,0.00,,,0.09,0.000000,,2013-09-04 08:52:00,
2013-09-04 01:01:00,48.0,47.0,-100.00,NE,38,1.0,3.0,96,0.00,,,0.09,0.000000,,2013-09-04 09:01:00,
2013-09-04 01:11:00,48.0,47.0,-100.00,NE,38,1.0,3.0,96,0.00,,,0.09,0.000000,,2013-09-04 09:11:00,
2013-09-04 01:21:00,48.0,47.0,-100.00,NE,38,1.0,3.0,96,0.00,,,0.09,0.000000,,2013-09-04 09:21:00,
2013-09-04 01:53:00,48.0,47.0,-100.00,NNE,23,1.0,4.0,97,0.01,,,-99.99,0.000000,,2013-09-04 09:53:00,
2013-09-04 02:03:00,48.0,47.0,-100.00,NNE,23,1.0,4.0,97,0.01,,,-99.99,0.000000,,2013-09-04 10:03:00,
2013-09-04 02:12:00,48.0,47.0,-100.00,NNE,23,1.0,4.0,97,0.01,,,-99.99,0.000000,,2013-09-04 10:12:00,
2013-09-04 02:23:00,48.0,47.0,-100.00,NNE,23,1.0,4.0,97,0.01,,,-99.99,0.000000,,2013-09-04 10:23:00,
2013-09-04 02:52:00,48.0,47.0,-100.00,North,9,1.0,3.0,97,0.06,,,0.16,0.000000,,2013-09-04 10:52:00,
2013-09-04 03:02:00,48.0,47.0,-100.00,North,9,1.0,3.0,97,0.06,,,0.16,0.000000,,2013-09-04 11:02:00,
2013-09-04 03:12:00,48.0,47.0,-100.00,North,9,1.0,3.0,97,0.06,,,0.16,0.000000,,2013-09-04 11:12:00,
2013-09-04 03:22:00,48.0,47.0,-100.00,North,9,1.0,3.0,97,0.06,,,0.16,0.000000,,2013-09-04 11:22:00,
2013-09-04 03:52:00,49.0,48.0,-100.00,NNW,341,1.0,4.0,98,0.09,,,0.25,0.000000,,2013-09-04 11:52:00,
2013-09-04 04:01:00,49.0,48.0,-100.00,NNW,341,1.0,4.0,98,0.09,,,0.25,0.000000,,2013-09-04 12:01:00,
2013-09-04 04:11:00,49.0,48.0,-100.00,NNW,341,1.0,4.0,98,0.09,,,0.25,0.000000,,2013-09-04 12:11:00,
2013-09-04 04:21:00,49.0,48.0,-100.00,NNW,341,1.0,4.0,98,0.09,,,0.25,0.000000,,2013-09-04 12:21:00,
2013-09-04 04:52:00,49.0,48.0,-100.00,NE,37,0.0,2.0,98,0.00,,,0.25,0.000000,,2013-09-04 12:52:00,
2013-09-04 05:01:00,49.0,48.0,-100.00,NE,37,0.0,2.0,98,0.00,,,0.25,0.000000,,2013-09-04 13:01:00,
2013-09-04 05:11:00,49.0,48.0,-100.00,NE,37,0.0,2.0,98,0.00,,,0.25,0.000000,,2013-09-04 13:11:00,
2013-09-04 05:21:00,49.0,48.0,-100.00,NE,37,0.0,2.0,98,0.00,,,0.25,0.000000,,2013-09-04 13:21:00,
2013-09-04 05:52:00,48.0,47.0,-100.00,SW,225,0.0,2.0,98,0.01,,,0.26,0.000000,,2013-09-04 13:52:00,
2013-09-04 06:01:00,48.0,47.0,-100.00,SW,225,0.0,2.0,98,0.01,,,0.26,0.000000,,2013-09-04 14:01:00,
2013-09-04 06:11:00,48.0,47.0,-100.00,SW,225,0.0,2.0,98,0.01,,,0.26,0.000000,,2013-09-04 14:11:00,
2013-09-04 06:21:00,48.0,47.0,-100.00,SW,225,0.0,2.0,98,0.01,,,0.26,0.000000,,2013-09-04 14:21:00,
2013-09-04 06:52:00,48.0,47.0,-100.00,WNW,303,0.0,2.0,98,0.01,,,0.27,0.000000,,2013-09-04 14:52:00,
2013-09-04 07:02:00,48.0,47.0,-100.00,WNW,303,0.0,2.0,98,0.01,,,0.27,0.000000,,2013-09-04 15:02:00,
2013-09-04 07:12:00,48.0,47.0,-100.00,WNW,303,0.0,2.0,98,0.01,,,0.27,0.000000,,2013-09-04 15:12:00,
2013-09-04 07:22:00,48.0,47.0,-100.00,WNW,303,0.0,2.0,98,0.01,,,0.27,0.000000,,2013-09-04 15:22:00,
2013-09-04 07:53:00,48.0,47.0,-100.00,NE,48,0.0,2.0,98,0.00,,,0.27,1.000000,,2013-09-04 15:53:00,
2013-09-04 08:04:00,48.0,47.0,-100.00,NE,48,0.0,2.0,98,0.00,,,0.27,1.000000,,2013-09-04 16:04:00,
2013-09-04 08:12:00,48.0,47.0,-100.00,NE,48,0.0,2.0,98,0.00,,,0.27,1.000000,,2013-09-04 16:12:00,
2013-09-04 08:23:00,48.0,47.0,-100.00,NE,48,0.0,2.0,98,0.00,,,0.27,1.000000,,2013-09-04 16:23:00,
2013-09-04 08:53:00,48.0,47.0,-100.00,NE,51,0.0,2.0,98,0.00,,,0.27,19.000000,,2013-09-04 16:53:00,
2013-09-04 09:03:00,48.0,47.0,-100.00,NE,51,0.0,2.0,98,0.00,,,0.27,19.000000,,2013-09-04 17:03:00,
2013-09-04 09:13:00,48.0,47.0,-100.00,NE,51,0.0,2.0,98,0.00,,,0.27,19.000000,,2013-09-04 17:13:00,
2013-09-04 09:22:00,48.0,47.0,-100.00,NE,51,0.0,2.0,98,0.00,,,0.27,19.000000,,2013-09-04 17:22:00,
2013-09-04 09:53:00,50.0,49.0,-100.00,South,185,0.0,2.0,98,0.00,,,0.27,60.000000,,2013-09-04 17:53:00,
2013-09-04 10:02:00,50.0,49.0,-100.00,South,185,0.0,2.0,98,0.00,,,0.27,60.000000,,2013-09-04 18:02:00,
2013-09-04 10:12:00,50.0,49.0,-100.00,South,185,0.0,2.0,98,0.00,,,0.27,60.000000,,2013-09-04 18:12:00,
2013-09-04 10:21:00,50.0,49.0,-100.00,South,185,0.0,2.0,98,0.00,,,0.27,60.000000,,2013-09-04 18:21:00,
2013-09-04 10:52:00,56.0,51.0,-100.00,SSE,160,1.0,5.0,84,0.00,,,0.27,218.000000,,2013-09-04 18:52:00,
2013-09-04 11:02:00,56.0,51.0,-100.00,SSE,160,1.0,5.0,84,0.00,,,0.27,218.000000,,2013-09-04 19:02:00,
2013-09-04 11:11:00,56.0,51.0,-100.00,SSE,160,1.0,5.0,84,0.00,,,0.27,218.000000,,2013-09-04 19:11:00,
2013-09-04 11:22:00,56.0,51.0,-100.00,SSE,160,1.0,5.0,84,0.00,,,0.27,218.000000,,2013-09-04 19:22:00,
2013-09-04 11:52:00,56.0,49.0,-100.00,SSW,211,5.0,9.0,78,0.00,,,0.27,202.000000,,2013-09-04 19:52:00,
2013-09-04 12:02:00,56.0,49.0,-100.00,SSW,211,5.0,9.0,78,0.00,,,0.27,202.000000,,2013-09-04 20:02:00,
2013-09-04 12:11:00,56.0,49.0,-100.00,SSW,211,5.0,9.0,78,0.00,,,0.27,202.000000,,2013-09-04 20:11:00,
2013-09-04 12:22:00,56.0,49.0,-100.00,SSW,211,5.0,9.0,78,0.00,,,0.27,202.000000,,2013-09-04 20:22:00,
2013-09-04 12:53:00,55.0,48.0,-100.00,SW,215,7.0,17.0,76,0.00,,,0.27,197.000000,,2013-09-04 20:53:00,
2013-09-04 13:01:00,55.0,48.0,-100.00,SW,215,7.0,17.0,76,0.00,,,0.27,197.000000,,2013-09-04 21:01:00,
2013-09-04 13:11:00,55.0,48.0,-100.00,SW,215,7.0,17.0,76,0.00,,,0.27,197.000000,,2013-09-04 21:11:00,
2013-09-04 13:22:00,55.0,48.0,-100.00,SW,215,7.0,17.0,76,0.00,,,0.27,197.000000,,2013-09-04 21:22:00,
2013-09-04 13:54:00,60.0,48.0,-100.00,SW,219,9.0,16.0,64,0.00,,,0.20,404.000000,,2013-09-04 21:54:00,
2013-09-04 14:04:00,60.0,48.0,-100.00,SW,219,9.0,16.0,64,0.00,,,0.20,404.000000,,2013-09-04 22:04:00,
2013-09-04 14:14:00,60.0,48.0,-100.00,SW,219,9.0,16.0,64,0.00,,,0.20,404.000000,,2013-09-04 22:14:00,
2013-09-04 14:23:00,60.0,48.0,-100.00,SW,219,9.0,16.0,64,0.00,,,0.20,404.000000,,2013-09-04 22:23:00,
2013-09-04 14:54:00,56.0,47.0,-100.00,SW,218,6.0,17.0,73,0.00,,,0.19,241.000000,,2013-09-04 22:54:00,
2013-09-04 15:03:00,56.0,47.0,-100.00,SW,218,6.0,17.0,73,0.00,,,0.19,241.000000,,2013-09-04 23:03:00,
2013-09-04 15:13:00,56.0,47.0,-100.00,SW,218,6.0,17.0,73,0.00,,,0.19,241.000000,,2013-09-04 23:13:00,
2013-09-04 15:22:00,56.0,47.0,-100.00,SW,218,6.0,17.0,73,0.00,,,0.19,241.000000,,2013-09-04 23:22:00,
2013-09-04 15:52:00,56.0,48.0,-100.00,SSW,208,6.0,12.0,75,0.00,,,0.19,432.000000,,2013-09-04 23:52:00,
2013-09-04 16:01:00,56.0,48.0,-100.00,SSW,208,6.0,12.0,75,0.00,,,0.19,432.000000,,2013-09-05 00:01:00,
2013-09-04 16:11:00,56.0,48.0,-100.00,SSW,208,6.0,12.0,75,0.00,,,0.19,432.000000,,2013-09-05 00:11:00,
2013-09-04 16:22:00,56.0,48.0,-100.00,SSW,208,6.0,12.0,75,0.00,,,0.19,432.000000,,2013-09-05 00:22:00,
2013-09-04 16:52:00,58.0,47.0,-100.00,SSW,202,7.0,12.0,66,0.00,,,0.19,263.000000,,2013-09-05 00:52:00,
2013-09-04 17:01:00,58.0,47.0,-100.00,SSW,202,7.0,12.0,66,0.00,,,0.19,263.000000,,2013-09-05 01:01:00,
2013-09-04 17:11:00,58.0,47.0,-100.00,SSW,202,7.0,12.0,66,0.00,,,0.19,263.000000,,2013-09-05 01:11:00,
2013-09-04 17:21:00,58.0,47.0,-100.00,SSW,202,7.0,12.0,66,0.00,,,0.19,263.000000,,2013-09-05 01:21:00,
2013-09-04 17:52:00,59.0,45.0,-100.00,SSW,199,7.0,19.0,60,0.00,,,0.19,305.000000,,2013-09-05 01:52:00,
2013-09-04 18:02:00,59.0,45.0,-100.00,SSW,199,7.0,19.0,60,0.00,,,0.19,305.000000,,2013-09-05 02:02:00,
2013-09-04 18:11:00,59.0,45.0,-100.00,SSW,199,7.0,19.0,60,0.00,,,0.19,305.000000,,2013-09-05 02:11:00,
2013-09-04 18:21:00,59.0,45.0,-100.00,SSW,199,7.0,19.0,60,0.00,,,0.19,305.000000,,2013-09-05 02:21:00,
2013-09-04 19:11:00,60.0,44.0,-100.00,SSW,206,7.0,15.0,55,0.00,,,0.19,288.000000,,2013-09-05 03:11:00,
2013-09-04 19:22:00,60.0,44.0,-100.00,SSW,206,7.0,15.0,55,0.00,,,0.19,288.000000,,2013-09-05 03:22:00,
2013-09-04 19:54:00,58.0,43.0,-100.00,SSW,212,7.0,14.0,57,0.00,,,0.19,179.000000,,2013-09-05 03:54:00,
2013-09-04 20:04:00,58.0,43.0,-100.00,SSW,212,7.0,14.0,57,0.00,,,0.19,179.000000,,2013-09-05 04:04:00,
2013-09-04 20:13:00,58.0,43.0,-100.00,SSW,212,7.0,14.0,57,0.00,,,0.19,179.000000,,2013-09-05 04:13:00,
2013-09-04 20:23:00,58.0,43.0,-100.00,SSW,212,7.0,14.0,57,0.00,,,0.19,179.000000,,2013-09-05 04:23:00,
2013-09-04 20:53:00,55.0,44.0,-100.00,SSW,206,3.0,14.0,67,0.00,,,0.19,61.000000,,2013-09-05 04:53:00,
2013-09-04 21:03:00,55.0,44.0,-100.00,SSW,206,3.0,14.0,67,0.00,,,0.19,61.000000,,2013-09-05 05:03:00,
2013-09-04 21:12:00,55.0,44.0,-100.00,SSW,206,3.0,14.0,67,0.00,,,0.19,61.000000,,2013-09-05 05:12:00,
2013-09-04 21:23:00,55.0,44.0,-100.00,SSW,206,3.0,14.0,67,0.00,,,0.19,61.000000,,2013-09-05 05:23:00,
2013-09-04 21:52:00,49.0,45.0,-100.00,SE,133,1.0,4.0,85,0.00,,,0.19,6.000000,,2013-09-05 05:52:00,
2013-09-04 22:02:00,49.0,45.0,-100.00,SE,133,1.0,4.0,85,0.00,,,0.19,6.000000,,2013-09-05 06:02:00,
2013-09-04 22:12:00,49.0,45.0,-100.00,SE,133,1.0,4.0,85,0.00,,,0.19,6.000000,,2013-09-05 06:12:00,
2013-09-04 22:21:00,49.0,45.0,-100.00,SE,133,1.0,4.0,85,0.00,,,0.19,6.000000,,2013-09-05 06:21:00,
2013-09-04 22:52:00,48.0,45.0,-100.00,SE,125,1.0,5.0,88,0.00,,,0.18,0.000000,,2013-09-05 06:52:00,
2013-09-04 23:01:00,48.0,45.0,-100.00,SE,125,1.0,5.0,88,0.00,,,0.18,0.000000,,2013-09-05 07:01:00,
2013-09-04 23:12:00,48.0,45.0,-100.00,SE,125,1.0,5.0,88,0.00,,,0.18,0.000000,,2013-09-05 07:12:00,
2013-09-04 23:22:00,48.0,45.0,-100.00,SE,125,1.0,5.0,88,0.00,,,0.18,0.000000,,2013-09-05 07:22:00,
2013-09-04 23:52:00,47.0,43.0,-100.00,SE,126,2.0,5.0,87,0.00,,,0.18,0.000000,,2013-09-05 07:52:00,